createdAt,value
2023-05-25T00:01:01.096Z,16.60
2023-05-25T00:02:05.311Z,16.61
2023-05-25T00:03:09.981Z,16.59
2023-05-25T00:04:16.983Z,16.60
2023-05-25T00:05:20.958Z,16.57
2023-05-25T00:06:23.045Z,16.57
2023-05-25T00:07:26.112Z,16.58
2023-05-25T00:08:28.343Z,16.57
2023-05-25T00:09:31.409Z,16.56
2023-05-25T00:10:33.401Z,16.58
2023-05-25T00:11:36.319Z,16.57
2023-05-25T00:12:38.251Z,16.57
2023-05-25T00:13:41.724Z,16.57
2023-05-25T00:14:43.630Z,16.59
2023-05-25T00:15:46.644Z,16.58
2023-05-25T00:16:48.954Z,16.58
2023-05-25T00:17:54.591Z,16.59
2023-05-25T00:18:57.539Z,16.57
2023-05-25T00:20:08.012Z,16.57
2023-05-25T00:21:10.698Z,16.56
2023-05-25T00:22:13.656Z,16.55
2023-05-25T00:23:16.289Z,16.58
2023-05-25T00:24:19.335Z,16.54
2023-05-25T00:25:21.355Z,16.53
2023-05-25T00:26:24.283Z,16.52
2023-05-25T00:27:26.265Z,16.51
2023-05-25T00:28:29.225Z,16.49
2023-05-25T00:29:31.069Z,16.47
2023-05-25T00:30:33.967Z,16.45
2023-05-25T00:31:36.671Z,16.43
2023-05-25T00:32:39.767Z,16.44
2023-05-25T00:33:41.689Z,16.43
2023-05-25T00:34:44.605Z,16.44
2023-05-25T00:35:48.183Z,16.45
2023-05-25T00:36:51.961Z,16.45
2023-05-25T00:37:53.920Z,16.45
2023-05-25T00:38:56.975Z,16.46
2023-05-25T00:39:58.916Z,16.46
2023-05-25T00:41:03.398Z,16.48
2023-05-25T00:42:07.381Z,16.47
2023-05-25T00:43:10.942Z,16.48
2023-05-25T00:44:14.857Z,16.48
2023-05-25T00:45:18.537Z,16.48
2023-05-25T00:46:20.651Z,16.47
2023-05-25T00:47:23.734Z,16.47
2023-05-25T00:48:26.430Z,16.47
2023-05-25T00:49:30.974Z,16.50
2023-05-25T00:50:40.768Z,16.47
2023-05-25T00:51:46.633Z,16.47
2023-05-25T00:52:49.731Z,16.46
2023-05-25T00:53:52.820Z,16.48
2023-05-25T00:55:00.798Z,16.46
2023-05-25T00:56:09.387Z,16.46
2023-05-25T00:57:14.599Z,16.45
2023-05-25T00:58:23.085Z,16.46
2023-05-25T00:59:31.935Z,16.46
2023-05-25T01:00:36.884Z,16.45
2023-05-25T01:01:40.906Z,16.44
2023-05-25T01:02:45.951Z,16.44
2023-05-25T01:03:53.691Z,16.43
2023-05-25T01:04:59.715Z,16.41
2023-05-25T01:06:04.428Z,16.42
2023-05-25T01:07:12.899Z,16.41
2023-05-25T01:08:17.363Z,16.40
2023-05-25T01:09:23.400Z,16.40
2023-05-25T01:10:26.684Z,16.39
2023-05-25T01:11:33.799Z,16.38
2023-05-25T01:12:38.527Z,16.38
2023-05-25T01:13:42.724Z,16.38
2023-05-25T01:14:48.117Z,16.37
2023-05-25T01:15:52.319Z,16.37
2023-05-25T01:16:56.769Z,16.36
2023-05-25T01:17:59.403Z,16.36
2023-05-25T01:19:04.827Z,16.34
2023-05-25T01:20:11.638Z,16.34
2023-05-25T01:21:22.970Z,16.35
2023-05-25T01:22:28.981Z,16.34
2023-05-25T01:23:36.527Z,16.34
2023-05-25T01:24:44.451Z,16.33
2023-05-25T01:25:52.602Z,16.32
2023-05-25T01:26:58.227Z,16.33
2023-05-25T01:28:07.517Z,16.33
2023-05-25T01:29:11.908Z,16.33
2023-05-25T01:30:17.827Z,16.33
2023-05-25T01:31:22.602Z,16.33
2023-05-25T01:32:26.385Z,16.32
2023-05-25T01:33:30.054Z,16.30
2023-05-25T01:34:33.723Z,16.31
2023-05-25T01:35:36.931Z,16.29
2023-05-25T01:36:41.613Z,16.28
2023-05-25T01:37:46.224Z,16.28
2023-05-25T01:38:50.019Z,16.27
2023-05-25T01:39:51.923Z,16.26
2023-05-25T01:40:55.067Z,16.25
2023-05-25T01:41:57.825Z,16.25
2023-05-25T01:43:00.785Z,16.25
2023-05-25T01:44:03.135Z,16.24
2023-05-25T01:45:07.520Z,16.25
2023-05-25T01:46:16.731Z,16.23
2023-05-25T01:47:24.552Z,16.22
2023-05-25T01:48:38.024Z,16.24
2023-05-25T01:49:47.461Z,16.22
2023-05-25T01:50:54.596Z,16.22
2023-05-25T01:52:07.377Z,16.22
2023-05-25T01:53:10.798Z,16.21
2023-05-25T01:54:20.673Z,16.22
2023-05-25T01:55:28.954Z,16.21
2023-05-25T01:56:33.621Z,16.21
2023-05-25T01:57:38.681Z,16.20
2023-05-25T01:58:44.745Z,16.20
2023-05-25T01:59:47.982Z,16.19
2023-05-25T02:00:52.652Z,16.18
2023-05-25T02:01:55.201Z,16.17
2023-05-25T02:02:59.005Z,16.18
2023-05-25T02:04:01.381Z,16.17
2023-05-25T02:05:04.888Z,16.17
2023-05-25T02:06:08.218Z,16.18
2023-05-25T02:07:12.934Z,16.17
2023-05-25T02:08:14.877Z,16.18
2023-05-25T02:09:17.793Z,16.18
2023-05-25T02:10:19.832Z,16.15
2023-05-25T02:11:22.707Z,16.16
2023-05-25T02:12:24.732Z,16.15
2023-05-25T02:13:27.787Z,16.14
2023-05-25T02:14:29.803Z,16.14
2023-05-25T02:15:34.875Z,16.14
2023-05-25T02:16:37.458Z,16.14
2023-05-25T02:17:40.400Z,16.14
2023-05-25T02:18:44.697Z,16.14
2023-05-25T02:19:50.447Z,16.14
2023-05-25T02:20:54.618Z,16.13
2023-05-25T02:21:58.005Z,16.12
2023-05-25T02:23:02.092Z,16.12
2023-05-25T02:24:05.514Z,16.12
2023-05-25T02:25:09.140Z,16.11
2023-05-25T02:26:12.074Z,16.10
2023-05-25T02:27:14.140Z,16.09
2023-05-25T02:28:17.056Z,16.08
2023-05-25T02:29:19.007Z,16.09
2023-05-25T02:30:22.781Z,16.08
2023-05-25T02:31:24.695Z,16.07
2023-05-25T02:32:29.517Z,16.07
2023-05-25T02:33:31.670Z,16.07
2023-05-25T02:34:34.654Z,16.07
2023-05-25T02:35:36.634Z,16.09
2023-05-25T02:36:39.778Z,16.06
2023-05-25T02:37:42.746Z,16.07
2023-05-25T02:38:47.448Z,16.06
2023-05-25T02:39:50.576Z,16.05
2023-05-25T02:40:52.720Z,16.05
2023-05-25T02:41:56.915Z,16.04
2023-05-25T02:42:59.033Z,16.03
2023-05-25T02:44:02.112Z,16.03
2023-05-25T02:45:10.493Z,16.03
2023-05-25T02:46:15.043Z,16.02
2023-05-25T02:47:18.085Z,16.01
2023-05-25T02:48:22.129Z,16.00
2023-05-25T02:49:24.150Z,16.00
2023-05-25T02:50:27.033Z,16.01
2023-05-25T02:51:33.566Z,16.01
2023-05-25T02:52:36.575Z,15.98
2023-05-25T02:53:38.469Z,15.98
2023-05-25T02:54:42.779Z,15.97
2023-05-25T02:55:48.670Z,15.96
2023-05-25T02:56:55.082Z,15.96
2023-05-25T02:57:58.179Z,15.91
2023-05-25T02:59:19.714Z,15.92
2023-05-25T03:00:21.963Z,15.93
2023-05-25T03:01:25.543Z,15.93
2023-05-25T03:02:30.889Z,15.92
2023-05-25T03:03:33.977Z,15.92
2023-05-25T03:04:38.004Z,15.92
2023-05-25T03:05:41.126Z,15.92
2023-05-25T03:06:43.316Z,15.92
2023-05-25T03:07:50.542Z,15.93
2023-05-25T03:08:52.506Z,15.93
2023-05-25T03:09:56.751Z,15.92
2023-05-25T03:10:58.783Z,15.93
2023-05-25T03:12:02.482Z,15.93
2023-05-25T03:13:04.404Z,15.94
2023-05-25T03:14:07.867Z,15.94
2023-05-25T03:15:13.202Z,15.94
2023-05-25T03:16:16.261Z,15.94
2023-05-25T03:17:18.229Z,15.95
2023-05-25T03:18:21.494Z,15.94
2023-05-25T03:19:23.498Z,15.93
2023-05-25T03:20:26.612Z,15.93
2023-05-25T03:21:28.975Z,15.93
2023-05-25T03:22:32.034Z,15.92
2023-05-25T03:23:33.977Z,15.92
2023-05-25T03:24:41.496Z,15.92
2023-05-25T03:25:46.041Z,15.92
2023-05-25T03:26:49.510Z,15.93
2023-05-25T03:27:52.782Z,15.92
2023-05-25T03:28:55.910Z,15.92
2023-05-25T03:29:57.860Z,15.93
2023-05-25T03:31:01.431Z,15.93
2023-05-25T03:32:04.249Z,15.93
2023-05-25T03:33:09.757Z,15.93
2023-05-25T03:34:17.733Z,15.92
2023-05-25T03:35:20.605Z,15.92
2023-05-25T03:36:27.526Z,15.93
2023-05-25T03:37:29.508Z,15.92
2023-05-25T03:38:33.548Z,15.92
2023-05-25T03:39:35.629Z,15.92
2023-05-25T03:40:38.535Z,15.92
2023-05-25T03:41:43.109Z,15.93
2023-05-25T03:42:46.556Z,15.93
2023-05-25T03:43:48.457Z,15.94
2023-05-25T03:44:51.440Z,15.94
2023-05-25T03:45:53.572Z,15.94
2023-05-25T03:46:56.774Z,15.93
2023-05-25T03:47:58.809Z,15.93
2023-05-25T03:49:01.859Z,15.93
2023-05-25T03:50:07.396Z,15.94
2023-05-25T03:51:10.471Z,15.93
2023-05-25T03:52:12.464Z,15.94
2023-05-25T03:53:15.839Z,15.93
2023-05-25T03:54:18.442Z,15.93
2023-05-25T03:55:23.759Z,15.94
2023-05-25T03:56:26.400Z,15.94
2023-05-25T03:57:30.643Z,15.94
2023-05-25T03:58:34.226Z,15.94
2023-05-25T03:59:37.176Z,15.94
2023-05-25T04:00:39.114Z,15.93
2023-05-25T04:01:42.205Z,15.93
2023-05-25T04:02:44.288Z,15.92
2023-05-25T04:03:47.570Z,15.93
2023-05-25T04:04:52.057Z,15.93
2023-05-25T04:05:55.042Z,15.93
2023-05-25T04:06:59.827Z,15.93
2023-05-25T04:08:03.296Z,15.93
2023-05-25T04:09:05.237Z,15.93
2023-05-25T04:10:10.124Z,15.94
2023-05-25T04:11:12.351Z,15.94
2023-05-25T04:12:15.747Z,15.94
2023-05-25T04:13:19.082Z,15.93
2023-05-25T04:14:22.044Z,15.94
2023-05-25T04:15:25.113Z,15.94
2023-05-25T04:16:45.722Z,15.94
2023-05-25T04:17:49.329Z,15.94
2023-05-25T04:18:52.450Z,15.95
2023-05-25T04:19:56.329Z,15.96
2023-05-25T04:20:59.344Z,15.96
2023-05-25T04:22:01.814Z,15.96
2023-05-25T04:23:04.803Z,15.95
2023-05-25T04:24:09.086Z,15.97
2023-05-25T04:25:12.181Z,15.96
2023-05-25T04:26:15.641Z,15.97
2023-05-25T04:27:20.289Z,15.96
2023-05-25T04:28:23.937Z,15.96
2023-05-25T04:29:51.111Z,15.96
2023-05-25T04:31:10.000Z,15.96
2023-05-25T04:32:17.917Z,15.97
2023-05-25T04:33:47.131Z,15.96
2023-05-25T04:34:59.559Z,15.95
2023-05-25T04:36:11.027Z,15.90
2023-05-25T04:37:13.059Z,15.89
2023-05-25T04:38:17.660Z,15.89
2023-05-25T04:39:20.724Z,15.87
2023-05-25T04:40:28.569Z,15.88
2023-05-25T04:41:31.474Z,15.88
2023-05-25T04:42:37.984Z,15.88
2023-05-25T04:44:03.576Z,15.89
2023-05-25T04:45:10.269Z,15.91
2023-05-25T04:46:13.791Z,15.92
2023-05-25T04:47:19.241Z,15.93
2023-05-25T04:48:21.594Z,15.94
2023-05-25T04:49:24.993Z,15.94
2023-05-25T04:50:27.987Z,15.94
2023-05-25T04:51:30.586Z,15.90
2023-05-25T04:52:34.510Z,15.85
2023-05-25T04:53:36.912Z,15.87
2023-05-25T04:54:41.784Z,15.87
2023-05-25T04:55:44.449Z,15.89
2023-05-25T04:56:47.789Z,15.83
2023-05-25T04:57:49.750Z,15.81
2023-05-25T04:58:54.334Z,15.82
2023-05-25T04:59:56.306Z,15.84
2023-05-25T05:00:59.294Z,15.79
2023-05-25T05:02:01.251Z,15.66
2023-05-25T05:03:05.465Z,15.71
2023-05-25T05:04:07.809Z,15.63
2023-05-25T05:05:11.172Z,15.67
2023-05-25T05:06:13.085Z,15.69
2023-05-25T05:07:16.111Z,15.73
2023-05-25T05:08:18.484Z,15.75
2023-05-25T05:09:21.608Z,15.77
2023-05-25T05:10:24.319Z,15.72
2023-05-25T05:11:31.986Z,15.66
2023-05-25T05:12:34.382Z,15.61
2023-05-25T05:13:38.910Z,15.66
2023-05-25T05:14:43.209Z,15.66
2023-05-25T05:15:45.293Z,15.56
2023-05-25T05:16:48.476Z,15.57
2023-05-25T05:17:50.836Z,15.60
2023-05-25T05:18:53.874Z,15.64
2023-05-25T05:19:56.003Z,15.57
2023-05-25T05:21:00.036Z,15.54
2023-05-25T05:22:02.336Z,15.46
2023-05-25T05:23:06.043Z,15.46
2023-05-25T05:24:08.988Z,15.48
2023-05-25T05:25:11.994Z,15.50
2023-05-25T05:26:15.238Z,15.49
2023-05-25T05:27:20.755Z,15.51
2023-05-25T05:28:29.837Z,15.39
2023-05-25T05:29:34.261Z,15.35
2023-05-25T05:30:37.664Z,15.20
2023-05-25T05:31:40.695Z,15.27
2023-05-25T05:32:44.655Z,15.21
2023-05-25T05:33:49.616Z,15.13
2023-05-25T05:34:53.401Z,15.20
2023-05-25T05:36:09.044Z,15.30
2023-05-25T05:37:12.013Z,15.38
2023-05-25T05:38:15.045Z,15.45
2023-05-25T05:39:17.588Z,15.53
2023-05-25T05:40:21.251Z,15.55
2023-05-25T05:41:23.496Z,15.55
2023-05-25T05:42:27.042Z,15.39
2023-05-25T05:43:28.966Z,15.45
2023-05-25T05:44:31.992Z,15.50
2023-05-25T05:45:33.951Z,15.53
2023-05-25T05:46:38.303Z,15.59
2023-05-25T05:47:40.714Z,15.63
2023-05-25T05:48:43.975Z,15.66
2023-05-25T05:49:47.346Z,15.69
2023-05-25T05:50:52.497Z,15.66
2023-05-25T05:51:54.969Z,15.69
2023-05-25T05:52:58.074Z,15.72
2023-05-25T05:54:00.754Z,15.76
2023-05-25T05:55:03.686Z,15.71
2023-05-25T05:56:07.168Z,15.75
2023-05-25T05:57:10.177Z,15.79
2023-05-25T05:58:12.251Z,15.80
2023-05-25T05:59:15.298Z,15.80
2023-05-25T06:00:18.447Z,15.77
2023-05-25T06:01:23.446Z,15.80
2023-05-25T06:02:26.948Z,15.80
2023-05-25T06:03:30.012Z,15.80
2023-05-25T06:04:33.026Z,15.78
2023-05-25T06:05:36.045Z,15.79
2023-05-25T06:06:40.478Z,15.76
2023-05-25T06:07:43.849Z,15.75
2023-05-25T06:08:47.247Z,15.77
2023-05-25T06:09:50.189Z,15.71
2023-05-25T06:10:52.289Z,15.66
2023-05-25T06:11:55.898Z,15.68
2023-05-25T06:12:57.886Z,15.63
2023-05-25T06:14:00.891Z,15.60
2023-05-25T06:15:04.710Z,15.61
2023-05-25T06:16:07.334Z,15.62
2023-05-25T06:17:10.456Z,15.62
2023-05-25T06:18:14.052Z,15.63
2023-05-25T06:19:17.067Z,15.67
2023-05-25T06:20:19.089Z,15.70
2023-05-25T06:21:23.183Z,15.72
2023-05-25T06:22:28.114Z,15.71
2023-05-25T06:23:32.421Z,15.72
2023-05-25T06:24:34.409Z,15.75
2023-05-25T06:25:37.400Z,15.77
2023-05-25T06:26:39.311Z,15.80
2023-05-25T06:27:42.394Z,15.82
2023-05-25T06:28:46.869Z,15.86
2023-05-25T06:29:49.787Z,15.86
2023-05-25T06:30:51.733Z,15.86
2023-05-25T06:31:54.693Z,15.81
2023-05-25T06:32:57.115Z,15.81
2023-05-25T06:34:03.090Z,15.83
2023-05-25T06:35:07.965Z,15.84
2023-05-25T06:36:11.810Z,15.82
2023-05-25T06:37:14.920Z,15.82
2023-05-25T06:38:18.324Z,15.84
2023-05-25T06:39:20.336Z,15.80
2023-05-25T06:40:23.743Z,15.80
2023-05-25T06:41:26.174Z,15.80
2023-05-25T06:42:30.164Z,15.83
2023-05-25T06:43:32.499Z,15.85
2023-05-25T06:44:53.626Z,15.89
2023-05-25T06:45:56.641Z,15.80
2023-05-25T06:46:58.688Z,15.84
2023-05-25T06:48:01.676Z,15.84
2023-05-25T06:49:06.178Z,15.86
2023-05-25T06:50:10.457Z,15.84
2023-05-25T06:51:12.345Z,15.83
2023-05-25T06:52:15.198Z,15.81
2023-05-25T06:53:17.396Z,15.82
2023-05-25T06:54:20.768Z,15.82
2023-05-25T06:55:23.999Z,15.80
2023-05-25T06:56:27.938Z,15.81
2023-05-25T06:57:31.434Z,15.84
2023-05-25T06:58:33.376Z,15.86
2023-05-25T06:59:36.294Z,15.88
2023-05-25T07:00:38.239Z,15.79
2023-05-25T07:01:41.346Z,15.79
2023-05-25T07:02:44.289Z,15.75
2023-05-25T07:03:47.248Z,15.70
2023-05-25T07:04:51.555Z,15.71
2023-05-25T07:05:54.636Z,15.66
2023-05-25T07:06:57.578Z,15.70
2023-05-25T07:08:00.708Z,15.72
2023-05-25T07:09:02.738Z,15.76
2023-05-25T07:10:06.824Z,15.79
2023-05-25T07:11:10.639Z,15.81
2023-05-25T07:12:14.567Z,15.82
2023-05-25T07:13:17.530Z,15.84
2023-05-25T07:14:19.513Z,15.83
2023-05-25T07:15:22.838Z,15.76
2023-05-25T07:16:25.630Z,15.82
2023-05-25T07:17:31.558Z,15.84
2023-05-25T07:18:34.560Z,15.84
2023-05-25T07:19:36.601Z,15.84
2023-05-25T07:20:43.860Z,15.86
2023-05-25T07:21:46.074Z,15.89
2023-05-25T07:22:49.006Z,15.87
2023-05-25T07:23:51.030Z,15.91
2023-05-25T07:24:53.942Z,15.83
2023-05-25T07:25:56.962Z,15.81
2023-05-25T07:26:58.955Z,15.85
2023-05-25T07:28:01.923Z,15.86
2023-05-25T07:29:05.488Z,15.84
2023-05-25T07:30:08.627Z,15.82
2023-05-25T07:31:11.699Z,15.82
2023-05-25T07:32:13.731Z,15.81
2023-05-25T07:33:16.765Z,15.81
2023-05-25T07:34:18.701Z,15.81
2023-05-25T07:35:21.688Z,15.77
2023-05-25T07:36:25.191Z,15.80
2023-05-25T07:37:28.942Z,15.79
2023-05-25T07:38:31.002Z,15.78
2023-05-25T07:39:34.102Z,15.72
2023-05-25T07:40:36.741Z,15.79
2023-05-25T07:41:39.939Z,15.78
2023-05-25T07:42:41.908Z,15.78
2023-05-25T07:43:44.930Z,15.72
2023-05-25T07:44:47.021Z,15.78
2023-05-25T07:45:50.751Z,15.78
2023-05-25T07:46:52.864Z,15.79
2023-05-25T07:47:56.079Z,15.75
2023-05-25T07:48:59.863Z,15.70
2023-05-25T07:50:03.198Z,15.67
2023-05-25T07:51:05.190Z,15.73
2023-05-25T07:52:09.472Z,15.70
2023-05-25T07:53:11.404Z,15.68
2023-05-25T07:54:14.755Z,15.68
2023-05-25T07:55:19.178Z,15.69
2023-05-25T07:56:21.390Z,15.66
2023-05-25T07:57:25.278Z,15.62
2023-05-25T07:58:28.236Z,15.62
2023-05-25T07:59:30.140Z,15.67
2023-05-25T08:00:33.159Z,15.71
2023-05-25T08:01:35.992Z,15.75
2023-05-25T08:02:39.082Z,15.79
2023-05-25T08:04:51.176Z,15.87
2023-05-25T08:05:53.279Z,15.87
2023-05-25T08:06:56.248Z,15.91
2023-05-25T08:07:59.607Z,15.96
2023-05-25T08:09:04.597Z,15.96
2023-05-25T08:10:09.651Z,16.00
2023-05-25T08:11:11.657Z,15.98
2023-05-25T08:12:34.326Z,15.99
2023-05-25T08:13:37.611Z,15.94
2023-05-25T08:14:40.871Z,15.85
2023-05-25T08:15:42.931Z,15.89
2023-05-25T08:16:46.141Z,15.91
2023-05-25T08:17:50.941Z,15.93
2023-05-25T08:18:54.032Z,15.96
2023-05-25T08:19:56.128Z,15.98
2023-05-25T08:20:59.050Z,15.98
2023-05-25T08:22:01.980Z,15.97
2023-05-25T08:23:06.257Z,15.91
2023-05-25T08:24:08.943Z,15.91
2023-05-25T08:25:12.042Z,15.94
2023-05-25T08:26:34.089Z,15.91
2023-05-25T08:27:38.117Z,15.91
2023-05-25T08:28:41.255Z,15.91
2023-05-25T08:29:44.223Z,15.87
2023-05-25T08:30:46.261Z,15.92
2023-05-25T08:31:50.719Z,15.97
2023-05-25T08:32:52.725Z,16.01
2023-05-25T08:33:55.746Z,16.00
2023-05-25T08:34:57.709Z,16.05
2023-05-25T08:36:00.776Z,16.09
2023-05-25T08:37:02.739Z,16.08
2023-05-25T08:38:07.031Z,16.01
2023-05-25T08:39:10.341Z,15.97
2023-05-25T08:40:16.130Z,15.88
2023-05-25T08:41:19.730Z,15.93
2023-05-25T08:42:23.661Z,15.98
2023-05-25T08:43:26.651Z,16.04
2023-05-25T08:44:29.819Z,16.08
2023-05-25T08:45:34.804Z,16.11
2023-05-25T08:46:39.506Z,16.15
2023-05-25T08:47:43.441Z,16.14
2023-05-25T08:48:49.272Z,16.11
2023-05-25T08:49:54.199Z,16.04
2023-05-25T08:50:59.960Z,16.07
2023-05-25T08:52:03.277Z,16.01
2023-05-25T08:53:12.066Z,16.05
2023-05-25T08:54:17.655Z,16.06
2023-05-25T08:55:23.709Z,16.02
2023-05-25T08:56:30.569Z,16.06
2023-05-25T08:57:44.984Z,15.97
2023-05-25T08:58:54.754Z,16.05
2023-05-25T09:00:04.048Z,16.05
2023-05-25T09:01:09.578Z,16.03
2023-05-25T09:02:22.590Z,16.01
2023-05-25T09:03:25.464Z,16.06
2023-05-25T09:04:29.831Z,15.94
2023-05-25T09:05:32.449Z,16.05
2023-05-25T09:06:36.789Z,16.03
2023-05-25T09:07:39.156Z,16.08
2023-05-25T09:08:44.844Z,16.09
2023-05-25T09:09:48.189Z,16.13
2023-05-25T09:10:52.066Z,16.14
2023-05-25T09:11:55.689Z,16.15
2023-05-25T09:13:06.571Z,16.18
2023-05-25T09:14:15.035Z,16.06
2023-05-25T09:15:18.311Z,16.10
2023-05-25T09:16:22.826Z,16.10
2023-05-25T09:17:25.946Z,16.12
2023-05-25T09:18:28.997Z,16.11
2023-05-25T09:19:31.145Z,16.09
2023-05-25T09:20:34.497Z,16.03
2023-05-25T09:21:37.932Z,16.05
2023-05-25T09:22:40.786Z,16.06
2023-05-25T09:23:45.729Z,16.10
2023-05-25T09:24:48.891Z,16.13
2023-05-25T09:25:52.327Z,16.09
2023-05-25T09:26:54.320Z,16.13
2023-05-25T09:27:58.373Z,16.17
2023-05-25T09:29:01.710Z,16.14
2023-05-25T09:30:06.066Z,16.19
2023-05-25T09:31:09.016Z,16.10
2023-05-25T09:32:12.026Z,16.12
2023-05-25T09:33:17.666Z,16.14
2023-05-25T09:34:21.262Z,16.15
2023-05-25T09:35:25.271Z,16.10
2023-05-25T09:36:27.682Z,16.13
2023-05-25T09:37:31.402Z,16.09
2023-05-25T09:38:33.993Z,16.08
2023-05-25T09:39:39.101Z,16.11
2023-05-25T09:40:43.167Z,16.11
2023-05-25T09:41:47.604Z,16.16
2023-05-25T09:42:50.700Z,16.17
2023-05-25T09:44:02.087Z,16.19
2023-05-25T09:45:12.188Z,16.24
2023-05-25T09:46:15.396Z,16.25
2023-05-25T09:47:18.770Z,16.27
2023-05-25T09:48:22.184Z,16.29
2023-05-25T09:49:25.150Z,16.22
2023-05-25T09:50:28.130Z,16.26
2023-05-25T09:51:33.169Z,16.23
2023-05-25T09:52:36.417Z,16.07
2023-05-25T09:53:39.450Z,16.14
2023-05-25T09:54:46.045Z,16.15
2023-05-25T09:55:53.695Z,16.09
2023-05-25T09:56:56.318Z,16.04
2023-05-25T09:57:59.363Z,16.07
2023-05-25T09:59:02.591Z,16.13
2023-05-25T10:00:05.759Z,16.17
2023-05-25T10:01:14.566Z,16.23
2023-05-25T10:02:17.675Z,16.25
2023-05-25T10:03:21.844Z,16.23
2023-05-25T10:04:24.951Z,16.26
2023-05-25T10:05:28.104Z,16.28
2023-05-25T10:06:33.245Z,16.31
2023-05-25T10:07:40.415Z,16.33
2023-05-25T10:08:43.674Z,16.35
2023-05-25T10:09:51.573Z,16.32
2023-05-25T10:10:54.530Z,16.31
2023-05-25T10:11:57.618Z,16.23
2023-05-25T10:13:01.713Z,16.23
2023-05-25T10:14:09.522Z,16.28
2023-05-25T10:15:13.432Z,16.30
2023-05-25T10:16:18.622Z,16.29
2023-05-25T10:17:24.385Z,16.31
2023-05-25T10:18:29.901Z,16.32
2023-05-25T10:19:37.029Z,16.34
2023-05-25T10:20:40.434Z,16.37
2023-05-25T10:21:45.522Z,16.37
2023-05-25T10:22:55.113Z,16.40
2023-05-25T10:24:04.729Z,16.39
2023-05-25T10:25:16.053Z,16.40
2023-05-25T10:26:21.441Z,16.42
2023-05-25T10:27:27.583Z,16.45
2023-05-25T10:28:36.631Z,16.48
2023-05-25T10:29:40.062Z,16.49
2023-05-25T10:30:44.029Z,16.49
2023-05-25T10:31:47.025Z,16.48
2023-05-25T10:32:50.224Z,16.54
2023-05-25T10:33:52.764Z,16.56
2023-05-25T10:34:58.019Z,16.55
2023-05-25T10:36:10.199Z,16.55
2023-05-25T10:37:15.886Z,16.61
2023-05-25T10:38:19.901Z,16.60
2023-05-25T10:39:22.675Z,16.56
2023-05-25T10:40:27.479Z,16.55
2023-05-25T10:41:29.496Z,16.62
2023-05-25T10:42:34.436Z,16.64
2023-05-25T10:43:38.348Z,16.63
2023-05-25T10:44:42.359Z,16.60
2023-05-25T10:45:45.860Z,16.61
2023-05-25T10:46:49.571Z,16.56
2023-05-25T10:47:52.941Z,16.63
2023-05-25T10:49:00.694Z,16.62
2023-05-25T10:50:04.387Z,16.61
2023-05-25T10:51:09.061Z,16.54
2023-05-25T10:52:19.226Z,16.61
2023-05-25T10:53:21.437Z,16.57
2023-05-25T10:54:24.537Z,16.62
2023-05-25T10:55:31.838Z,16.65
2023-05-25T10:56:34.871Z,16.65
2023-05-25T10:57:36.923Z,16.59
2023-05-25T10:58:43.349Z,16.64
2023-05-25T10:59:49.345Z,16.67
2023-05-25T11:00:59.881Z,16.66
2023-05-25T11:02:08.335Z,16.66
2023-05-25T11:03:12.209Z,16.60
2023-05-25T11:04:16.160Z,16.58
2023-05-25T11:05:42.810Z,16.67
2023-05-25T11:07:08.368Z,16.67
2023-05-25T11:08:12.617Z,16.67
2023-05-25T11:09:24.672Z,16.71
2023-05-25T11:10:46.022Z,16.75
2023-05-25T11:12:05.824Z,16.75
2023-05-25T11:13:37.000Z,16.77
2023-05-25T11:14:43.484Z,16.78
2023-05-25T11:15:45.717Z,16.79
2023-05-25T11:17:06.300Z,16.80
2023-05-25T11:18:14.968Z,16.76
2023-05-25T11:19:18.340Z,16.78
2023-05-25T11:20:24.284Z,16.83
2023-05-25T11:21:45.541Z,16.87
2023-05-25T11:22:52.394Z,16.88
2023-05-25T11:23:57.457Z,16.89
2023-05-25T11:25:01.637Z,16.87
2023-05-25T11:26:06.683Z,16.89
2023-05-25T11:27:09.815Z,16.86
2023-05-25T11:28:12.562Z,16.86
2023-05-25T11:29:16.834Z,16.89
2023-05-25T11:30:18.928Z,16.90
2023-05-25T11:31:24.415Z,16.92
2023-05-25T11:32:28.551Z,16.92
2023-05-25T11:33:30.825Z,16.94
2023-05-25T11:34:33.799Z,16.93
2023-05-25T11:35:37.331Z,16.92
2023-05-25T11:36:41.399Z,16.92
2023-05-25T11:37:50.706Z,16.87
2023-05-25T11:39:04.991Z,16.90
2023-05-25T11:40:12.293Z,16.93
2023-05-25T11:41:18.973Z,16.97
2023-05-25T11:42:23.835Z,16.97
2023-05-25T11:43:26.991Z,17.02
2023-05-25T11:44:31.239Z,16.98
2023-05-25T11:45:34.552Z,16.99
2023-05-25T11:46:38.786Z,17.02
2023-05-25T11:47:43.138Z,17.05
2023-05-25T11:48:47.505Z,17.06
2023-05-25T11:49:50.637Z,17.07
2023-05-25T11:51:04.607Z,17.08
2023-05-25T11:52:08.149Z,17.10
2023-05-25T11:53:11.756Z,17.09
2023-05-25T11:54:23.129Z,17.12
2023-05-25T11:55:26.106Z,17.14
2023-05-25T11:56:35.776Z,17.16
2023-05-25T11:57:40.371Z,17.17
2023-05-25T11:58:44.555Z,17.14
2023-05-25T11:59:51.197Z,17.17
2023-05-25T12:00:53.767Z,17.16
2023-05-25T12:01:57.877Z,17.18
2023-05-25T12:02:59.942Z,17.18
2023-05-25T12:04:10.548Z,17.22
2023-05-25T12:05:12.626Z,17.24
2023-05-25T12:06:26.561Z,17.23
2023-05-25T12:07:30.775Z,17.22
2023-05-25T12:08:33.017Z,17.20
2023-05-25T12:09:36.724Z,17.26
2023-05-25T12:10:51.361Z,17.27
2023-05-25T12:11:55.884Z,17.21
2023-05-25T12:13:04.678Z,17.22
2023-05-25T12:14:07.593Z,17.29
2023-05-25T12:15:13.204Z,17.30
2023-05-25T12:16:15.228Z,17.32
2023-05-25T12:17:20.136Z,17.22
2023-05-25T12:18:23.413Z,17.28
2023-05-25T12:19:25.765Z,17.36
2023-05-25T12:20:28.903Z,17.37
2023-05-25T12:21:31.971Z,17.38
2023-05-25T12:22:35.403Z,17.36
2023-05-25T12:23:37.737Z,17.43
2023-05-25T12:24:41.062Z,17.43
2023-05-25T12:25:50.299Z,17.51
2023-05-25T12:26:57.439Z,17.56
2023-05-25T12:28:12.518Z,17.58
2023-05-25T12:29:15.741Z,17.57
2023-05-25T12:30:17.817Z,17.59
2023-05-25T12:31:22.063Z,17.60
2023-05-25T12:32:25.040Z,17.61
2023-05-25T12:33:26.971Z,17.59
2023-05-25T12:34:29.953Z,17.52
2023-05-25T12:35:46.771Z,17.59
2023-05-25T12:36:51.630Z,17.60
2023-05-25T12:38:12.192Z,17.60
2023-05-25T12:39:16.257Z,17.60
2023-05-25T12:40:20.860Z,17.61
2023-05-25T12:41:22.935Z,17.66
2023-05-25T12:42:30.055Z,17.66
2023-05-25T12:43:37.809Z,17.63
2023-05-25T12:44:41.436Z,17.58
2023-05-25T12:45:45.056Z,17.65
2023-05-25T12:46:47.721Z,17.66
2023-05-25T12:47:51.047Z,17.69
2023-05-25T12:48:53.248Z,17.65
2023-05-25T12:50:12.336Z,17.69
2023-05-25T12:51:15.293Z,17.72
2023-05-25T12:52:34.050Z,17.77
2023-05-25T12:53:47.293Z,17.84
2023-05-25T12:54:50.376Z,17.90
2023-05-25T12:56:00.897Z,17.88
2023-05-25T12:57:05.761Z,17.90
2023-05-25T12:58:28.050Z,17.88
2023-05-25T12:59:30.710Z,17.91
2023-05-25T13:00:34.998Z,17.94
2023-05-25T13:01:36.971Z,17.96
2023-05-25T13:02:43.302Z,17.96
2023-05-25T13:03:45.262Z,18.03
2023-05-25T13:04:48.267Z,18.06
2023-05-25T13:05:51.576Z,18.03
2023-05-25T13:06:55.638Z,18.09
2023-05-25T13:07:59.105Z,18.07
2023-05-25T13:09:01.068Z,18.09
2023-05-25T13:10:04.074Z,18.07
2023-05-25T13:11:07.080Z,18.07
2023-05-25T13:12:10.075Z,18.09
2023-05-25T13:13:13.368Z,18.08
2023-05-25T13:14:16.304Z,18.09
2023-05-25T13:15:22.081Z,18.10
2023-05-25T13:16:25.681Z,18.12
2023-05-25T13:17:29.127Z,18.13
2023-05-25T13:18:31.279Z,18.14
2023-05-25T13:19:34.246Z,18.10
2023-05-25T13:20:38.435Z,18.08
2023-05-25T13:21:40.566Z,18.10
2023-05-25T13:22:44.949Z,18.07
2023-05-25T13:23:46.926Z,18.11
2023-05-25T13:24:49.876Z,18.23
2023-05-25T13:25:52.792Z,18.27
2023-05-25T13:26:54.673Z,18.26
2023-05-25T13:27:59.886Z,18.26
2023-05-25T13:29:03.362Z,18.27
2023-05-25T13:30:07.296Z,18.24
2023-05-25T13:31:09.306Z,18.29
2023-05-25T13:32:12.352Z,18.33
2023-05-25T13:33:14.411Z,18.42
2023-05-25T13:34:17.706Z,18.47
2023-05-25T13:35:24.142Z,18.53
2023-05-25T13:36:27.189Z,18.54
2023-05-25T13:37:29.294Z,18.53
2023-05-25T13:38:32.254Z,18.50
2023-05-25T13:39:35.154Z,18.50
2023-05-25T13:40:38.172Z,18.52
2023-05-25T13:41:41.856Z,18.52
2023-05-25T13:42:43.885Z,18.49
2023-05-25T13:43:47.230Z,18.49
2023-05-25T13:44:51.624Z,18.47
2023-05-25T13:45:53.772Z,18.50
2023-05-25T13:46:56.763Z,18.51
2023-05-25T13:47:59.068Z,18.54
2023-05-25T13:49:02.217Z,18.55
2023-05-25T13:50:04.808Z,18.54
2023-05-25T13:51:07.859Z,18.53
2023-05-25T13:52:10.869Z,18.50
2023-05-25T13:53:13.417Z,18.52